createdAt,value
2022-12-17T00:01:04.093Z,266.87
2022-12-17T00:03:50.136Z,258.43
2022-12-17T00:06:35.984Z,231.13
2022-12-17T00:09:24.281Z,234.23
2022-12-17T00:12:10.615Z,289.03
2022-12-17T00:14:55.797Z,239.07
2022-12-17T00:17:43.027Z,211.30
2022-12-17T00:20:29.245Z,201.67
2022-12-17T00:23:18.086Z,196.57
2022-12-17T00:26:14.138Z,230.93
2022-12-17T00:28:59.282Z,218.30
2022-12-17T00:31:46.666Z,295.10
2022-12-17T00:34:34.079Z,184.40
2022-12-17T00:37:19.337Z,231.37
2022-12-17T00:40:07.097Z,231.80
2022-12-17T00:42:52.329Z,182.67
2022-12-17T00:45:37.636Z,188.60
2022-12-17T00:48:23.627Z,139.87
2022-12-17T00:51:10.541Z,162.50
2022-12-17T00:53:55.767Z,201.63
2022-12-17T00:56:41.446Z,180.57
2022-12-17T00:59:41.633Z,166.10
2022-12-17T01:02:27.391Z,175.93
2022-12-17T01:05:13.126Z,157.00
2022-12-17T01:08:00.291Z,175.77
2022-12-17T01:10:46.207Z,160.07
2022-12-17T01:13:32.534Z,169.00
2022-12-17T01:16:21.898Z,182.93
2022-12-17T01:19:07.986Z,246.27
2022-12-17T01:21:53.603Z,151.53
2022-12-17T01:24:40.480Z,223.63
2022-12-17T01:27:26.395Z,154.33
2022-12-17T01:30:12.013Z,168.77
2022-12-17T01:32:57.810Z,172.27
2022-12-17T01:35:43.452Z,154.23
2022-12-17T01:38:30.178Z,131.53
2022-12-17T01:41:17.317Z,161.43
2022-12-17T01:44:03.011Z,152.30
2022-12-17T01:46:53.724Z,157.13
2022-12-17T01:49:42.506Z,149.23
2022-12-17T01:52:30.556Z,154.63
2022-12-17T01:55:16.348Z,136.77
2022-12-17T01:58:04.273Z,146.53
2022-12-17T02:00:49.927Z,176.23
2022-12-17T02:03:37.018Z,141.57
2022-12-17T02:06:29.982Z,177.00
2022-12-17T02:09:25.997Z,186.20
2022-12-17T02:12:18.527Z,164.37
2022-12-17T02:15:08.799Z,159.03
2022-12-17T02:17:58.976Z,199.53
2022-12-17T02:20:49.689Z,165.80
2022-12-17T02:23:51.571Z,177.40
2022-12-17T02:26:52.173Z,131.73
2022-12-17T02:29:40.494Z,148.87
2022-12-17T02:32:28.688Z,133.70
2022-12-17T02:35:15.607Z,166.63
2022-12-17T02:38:05.592Z,137.70
2022-12-17T02:40:53.509Z,150.33
2022-12-17T02:43:45.485Z,155.93
2022-12-17T02:46:32.228Z,166.73
2022-12-17T02:49:14.656Z,160.60
2022-12-17T02:52:02.897Z,177.73
2022-12-17T02:54:52.185Z,168.00
2022-12-17T02:57:43.569Z,175.27
2022-12-17T03:00:35.261Z,171.07
2022-12-17T03:03:20.841Z,168.40
2022-12-17T03:06:06.277Z,164.67
2022-12-17T03:08:52.601Z,158.03
2022-12-17T03:11:38.481Z,174.67
2022-12-17T03:14:23.688Z,176.33
2022-12-17T03:17:10.813Z,211.93
2022-12-17T03:19:56.357Z,194.03
2022-12-17T03:22:41.631Z,171.83
2022-12-17T03:25:27.484Z,168.13
2022-12-17T03:28:12.853Z,164.33
2022-12-17T03:30:58.660Z,161.07
2022-12-17T03:33:45.756Z,231.13
2022-12-17T03:36:30.976Z,192.10
2022-12-17T03:39:16.252Z,180.07
2022-12-17T03:42:01.468Z,167.97
2022-12-17T03:44:46.827Z,169.43
2022-12-17T03:47:32.285Z,183.83
2022-12-17T03:50:15.699Z,173.77
2022-12-17T03:53:01.601Z,170.00
2022-12-17T03:55:47.270Z,176.93
2022-12-17T03:58:33.225Z,153.87
2022-12-17T04:01:18.526Z,156.67
2022-12-17T04:04:03.924Z,160.97
2022-12-17T04:06:50.853Z,154.20
2022-12-17T04:09:36.037Z,163.40
2022-12-17T04:12:21.928Z,146.63
2022-12-17T04:15:07.447Z,145.70
2022-12-17T04:17:53.080Z,155.30
2022-12-17T04:20:38.482Z,160.20
2022-12-17T04:23:25.449Z,152.17
2022-12-17T04:26:10.855Z,153.03
2022-12-17T04:28:56.232Z,158.57
2022-12-17T04:31:42.376Z,145.20
2022-12-17T04:34:27.797Z,148.53
2022-12-17T04:37:13.600Z,157.57
2022-12-17T04:40:00.585Z,154.10
2022-12-17T04:42:45.963Z,165.20
2022-12-17T04:45:31.832Z,162.47
2022-12-17T04:48:21.620Z,155.47
2022-12-17T04:51:07.048Z,157.47
2022-12-17T04:53:52.697Z,138.20
2022-12-17T04:56:39.456Z,162.83
2022-12-17T04:59:24.989Z,182.03
2022-12-17T05:02:10.415Z,158.10
2022-12-17T05:04:55.824Z,172.30
2022-12-17T05:07:52.740Z,176.27
2022-12-17T05:10:38.464Z,159.00
2022-12-17T05:13:25.347Z,186.63
2022-12-17T05:16:14.215Z,191.87
2022-12-17T05:18:56.377Z,185.60
2022-12-17T05:21:38.280Z,175.33
2022-12-17T05:24:24.108Z,180.57
2022-12-17T05:27:09.464Z,173.60
2022-12-17T05:29:56.607Z,179.13
2022-12-17T05:32:42.284Z,208.77
2022-12-17T05:35:28.188Z,186.23
2022-12-17T05:38:12.870Z,186.73
2022-12-17T05:40:58.497Z,196.13
2022-12-17T05:43:43.790Z,214.70
2022-12-17T05:46:30.859Z,214.43
2022-12-17T05:49:16.332Z,190.20
2022-12-17T05:52:01.776Z,203.57
2022-12-17T05:54:47.169Z,165.00
2022-12-17T05:57:31.647Z,165.87
2022-12-17T06:00:17.470Z,193.97
2022-12-17T06:03:04.342Z,170.90
2022-12-17T06:05:49.968Z,162.53
2022-12-17T06:08:35.139Z,166.03
2022-12-17T06:11:20.589Z,160.40
2022-12-17T06:14:05.973Z,160.50
2022-12-17T06:16:51.718Z,186.03
2022-12-17T06:19:38.898Z,171.33
2022-12-17T06:22:24.260Z,172.67
2022-12-17T06:25:10.052Z,182.67
2022-12-17T06:28:01.109Z,152.73
2022-12-17T06:31:01.131Z,183.53
2022-12-17T06:33:55.029Z,182.13
2022-12-17T06:36:41.839Z,171.90
2022-12-17T06:39:27.563Z,173.23
2022-12-17T06:42:12.757Z,180.50
2022-12-17T06:44:58.580Z,160.73
2022-12-17T06:47:44.589Z,161.17
2022-12-17T06:50:29.836Z,150.30
2022-12-17T06:53:22.508Z,164.67
2022-12-17T06:56:08.434Z,150.57
2022-12-17T06:58:53.690Z,154.47
2022-12-17T07:01:39.405Z,147.73
2022-12-17T07:04:25.224Z,166.70
2022-12-17T07:07:13.795Z,168.07
2022-12-17T07:10:00.680Z,152.13
2022-12-17T07:12:46.720Z,149.63
2022-12-17T07:15:32.495Z,180.40
2022-12-17T07:18:19.782Z,155.00
2022-12-17T07:21:06.068Z,163.20
2022-12-17T07:23:51.886Z,161.17
2022-12-17T07:26:38.591Z,164.90
2022-12-17T07:29:24.131Z,169.00
2022-12-17T07:32:09.383Z,163.67
2022-12-17T07:34:54.827Z,164.43
2022-12-17T07:37:40.354Z,157.77
2022-12-17T07:40:32.326Z,155.77
2022-12-17T07:43:19.429Z,155.40
2022-12-17T07:46:19.300Z,138.70
2022-12-17T07:49:05.040Z,150.80
2022-12-17T07:51:50.844Z,142.07
2022-12-17T07:54:36.067Z,144.23
2022-12-17T07:57:21.838Z,137.10
2022-12-17T08:00:08.643Z,134.87
2022-12-17T08:02:53.983Z,133.10
2022-12-17T08:05:39.313Z,107.10
2022-12-17T08:08:28.266Z,129.50
2022-12-17T08:11:13.905Z,128.93
2022-12-17T08:13:59.763Z,127.10
2022-12-17T08:16:48.003Z,131.90
2022-12-17T08:19:33.491Z,112.30
2022-12-17T08:22:19.308Z,117.07
2022-12-17T08:25:04.746Z,117.67
2022-12-17T08:27:50.116Z,118.97
2022-12-17T08:30:36.035Z,130.47
2022-12-17T08:33:24.060Z,120.30
2022-12-17T08:36:10.937Z,121.87
2022-12-17T08:38:56.871Z,133.23
2022-12-17T08:41:42.481Z,132.33
2022-12-17T08:44:27.890Z,151.63
2022-12-17T08:47:13.953Z,122.60
2022-12-17T08:50:00.621Z,137.93
2022-12-17T08:52:46.072Z,133.60
2022-12-17T08:55:31.162Z,137.33
2022-12-17T08:58:17.945Z,134.93
2022-12-17T09:01:04.102Z,139.43
2022-12-17T09:03:49.564Z,137.03
2022-12-17T09:06:39.272Z,117.10
2022-12-17T09:09:25.268Z,129.37
2022-12-17T09:12:10.568Z,121.77
2022-12-17T09:14:55.921Z,113.13
2022-12-17T09:17:41.470Z,115.93
2022-12-17T09:20:36.216Z,117.13
2022-12-17T09:23:23.084Z,132.43
2022-12-17T09:26:11.749Z,127.93
2022-12-17T09:28:57.453Z,129.97
2022-12-17T09:31:43.296Z,115.67
2022-12-17T09:34:43.644Z,136.03
2022-12-17T09:37:29.482Z,129.43
2022-12-17T09:40:16.662Z,112.43
2022-12-17T09:43:08.116Z,118.93
2022-12-17T09:45:58.780Z,122.20
2022-12-17T09:48:51.161Z,121.97
2022-12-17T09:51:49.758Z,128.93
2022-12-17T09:54:43.587Z,123.13
2022-12-17T09:57:35.249Z,119.00
2022-12-17T10:00:22.497Z,127.50
2022-12-17T10:03:08.463Z,128.00
2022-12-17T10:05:54.822Z,127.30
2022-12-17T10:08:40.424Z,113.13
2022-12-17T10:11:37.353Z,118.23
2022-12-17T10:14:35.479Z,114.27
2022-12-17T10:17:21.204Z,114.57
2022-12-17T10:20:09.284Z,108.43
2022-12-17T10:23:02.193Z,109.67
2022-12-17T10:25:47.972Z,114.57
2022-12-17T10:28:43.695Z,105.63
2022-12-17T10:31:35.467Z,104.33
2022-12-17T10:34:25.869Z,98.77
2022-12-17T10:37:12.208Z,86.43
2022-12-17T10:39:59.539Z,104.17
2022-12-17T10:42:46.277Z,102.97
2022-12-17T10:45:43.247Z,110.40
2022-12-17T10:48:41.524Z,118.33
2022-12-17T10:51:37.941Z,115.97
2022-12-17T10:54:28.836Z,91.27
2022-12-17T10:57:19.657Z,108.57
2022-12-17T11:00:05.588Z,113.60
2022-12-17T11:02:51.899Z,103.40
2022-12-17T11:05:59.235Z,90.97
2022-12-17T11:08:45.142Z,109.63
2022-12-17T11:11:33.029Z,99.43
2022-12-17T11:14:20.692Z,98.53
2022-12-17T11:17:10.540Z,96.20
2022-12-17T11:20:09.602Z,97.90
2022-12-17T11:23:02.267Z,110.37
2022-12-17T11:25:57.642Z,95.23
2022-12-17T11:28:45.682Z,91.90
2022-12-17T11:31:58.648Z,99.13
2022-12-17T11:34:58.073Z,82.93
2022-12-17T11:37:48.443Z,97.77
2022-12-17T11:40:48.203Z,90.83
2022-12-17T11:43:39.059Z,80.13
2022-12-17T11:46:33.938Z,72.17
2022-12-17T11:49:27.044Z,77.07
2022-12-17T11:52:19.374Z,74.27
2022-12-17T11:55:10.645Z,69.70
2022-12-17T11:58:05.528Z,77.37
2022-12-17T12:00:56.754Z,61.47
2022-12-17T12:03:50.585Z,66.40
2022-12-17T12:06:42.346Z,78.80
2022-12-17T12:09:35.548Z,75.03
2022-12-17T12:12:28.952Z,65.90
2022-12-17T12:15:26.060Z,80.57
2022-12-17T12:18:21.667Z,75.70
2022-12-17T12:21:29.958Z,71.57
2022-12-17T12:24:27.164Z,77.40
2022-12-17T12:27:26.614Z,77.90
2022-12-17T12:30:21.461Z,74.53
2022-12-17T12:33:19.899Z,77.23
2022-12-17T12:36:05.623Z,77.63
2022-12-17T12:38:57.854Z,70.63
2022-12-17T12:41:53.166Z,72.17
2022-12-17T12:44:49.832Z,71.70
2022-12-17T12:47:43.926Z,79.13
2022-12-17T12:50:37.420Z,82.93
2022-12-17T12:53:23.252Z,75.37
2022-12-17T12:56:08.489Z,87.23
2022-12-17T12:58:50.624Z,72.63
2022-12-17T13:01:37.329Z,81.53
2022-12-17T13:04:42.840Z,80.27
2022-12-17T13:07:22.650Z,81.93
2022-12-17T13:09:52.666Z,83.40
2022-12-17T13:12:29.269Z,90.20
2022-12-17T13:15:10.139Z,77.43
2022-12-17T13:17:40.879Z,85.20
2022-12-17T13:20:33.849Z,71.03
2022-12-17T13:23:30.790Z,83.27
2022-12-17T13:26:17.812Z,104.77
2022-12-17T13:29:02.041Z,86.30
2022-12-17T13:31:36.506Z,79.43
2022-12-17T13:34:23.647Z,84.87
2022-12-17T13:37:03.518Z,80.73
2022-12-17T13:39:42.313Z,78.53
2022-12-17T13:42:27.204Z,87.97
2022-12-17T13:44:59.506Z,68.20
2022-12-17T13:47:33.612Z,73.63
2022-12-17T13:50:36.650Z,86.23
2022-12-17T13:53:16.695Z,79.33
2022-12-17T13:55:57.667Z,82.70
2022-12-17T13:58:32.305Z,86.10
2022-12-17T14:01:10.161Z,75.30
2022-12-17T14:04:06.212Z,75.30
2022-12-17T14:06:39.118Z,78.83
2022-12-17T14:09:20.716Z,75.93
2022-12-17T14:12:08.110Z,71.10
2022-12-17T14:14:42.938Z,79.63
2022-12-17T14:17:20.578Z,75.93
2022-12-17T14:20:00.431Z,80.57
2022-12-17T14:22:36.553Z,75.07
2022-12-17T14:25:21.916Z,75.13
2022-12-17T14:27:55.565Z,80.40
2022-12-17T14:30:43.078Z,79.10
2022-12-17T14:33:37.697Z,76.17
2022-12-17T14:36:29.339Z,78.67
2022-12-17T14:39:23.091Z,77.17
2022-12-17T14:42:29.997Z,71.43
2022-12-17T14:45:01.001Z,79.90
2022-12-17T14:47:31.489Z,77.07
2022-12-17T14:50:08.861Z,76.40
2022-12-17T14:52:43.384Z,86.87
2022-12-17T14:55:36.391Z,93.57
2022-12-17T14:58:18.214Z,87.40
2022-12-17T15:01:00.822Z,88.83
2022-12-17T15:03:32.255Z,77.07
2022-12-17T15:06:03.232Z,92.90
2022-12-17T15:08:34.607Z,86.30
2022-12-17T15:11:03.200Z,92.97
2022-12-17T15:13:32.684Z,102.80
2022-12-17T15:16:00.883Z,89.27
2022-12-17T15:18:29.017Z,89.10
2022-12-17T15:20:57.064Z,81.27
2022-12-17T15:23:25.409Z,80.47
2022-12-17T15:25:54.630Z,96.23
2022-12-17T15:28:23.159Z,89.50
2022-12-17T15:30:55.615Z,99.90
2022-12-17T15:33:23.710Z,97.60
2022-12-17T15:35:51.793Z,112.93
2022-12-17T15:38:20.072Z,119.73
2022-12-17T15:40:48.168Z,111.67
2022-12-17T15:43:17.856Z,119.00
2022-12-17T15:45:48.126Z,116.83
2022-12-17T15:48:19.409Z,123.27
2022-12-17T15:50:48.213Z,135.53
2022-12-17T15:53:17.360Z,88.53
2022-12-17T15:55:45.429Z,115.83
2022-12-17T15:58:13.953Z,103.43
2022-12-17T16:00:42.118Z,109.13
2022-12-17T16:03:10.262Z,118.30
2022-12-17T16:05:39.773Z,112.43
2022-12-17T16:08:07.854Z,99.30
2022-12-17T16:10:35.869Z,115.80
2022-12-17T16:13:03.894Z,106.33
2022-12-17T16:15:32.264Z,114.17
2022-12-17T16:18:00.356Z,107.33
2022-12-17T16:20:28.396Z,103.63
2022-12-17T16:22:57.798Z,131.53
2022-12-17T16:25:25.809Z,123.57
2022-12-17T16:27:53.926Z,121.27
2022-12-17T16:30:22.082Z,115.23
2022-12-17T16:32:50.225Z,114.40
2022-12-17T16:35:18.529Z,110.40
2022-12-17T16:37:46.681Z,130.27
2022-12-17T16:40:16.446Z,124.50
2022-12-17T16:42:44.721Z,139.33
2022-12-17T16:45:12.785Z,112.03
2022-12-17T16:47:40.963Z,124.23
2022-12-17T16:50:09.461Z,129.17
2022-12-17T16:52:37.464Z,129.30
2022-12-17T16:55:06.049Z,125.07
2022-12-17T16:57:35.500Z,127.10
2022-12-17T17:00:04.518Z,113.60
2022-12-17T17:02:32.690Z,124.60
2022-12-17T17:05:00.958Z,129.63
2022-12-17T17:07:29.102Z,119.80
2022-12-17T17:09:57.681Z,146.63
2022-12-17T17:12:26.769Z,155.23
2022-12-17T17:14:56.173Z,132.87
2022-12-17T17:17:54.292Z,124.20
2022-12-17T17:20:14.438Z,149.63
2022-12-17T17:22:42.661Z,135.80
2022-12-17T17:25:11.014Z,133.50
2022-12-17T17:27:39.152Z,141.77
2022-12-17T17:30:10.069Z,141.53
2022-12-17T17:32:38.171Z,136.00
2022-12-17T17:35:07.050Z,149.20
2022-12-17T17:37:35.129Z,139.67
2022-12-17T17:40:03.216Z,139.57
2022-12-17T17:42:31.262Z,135.70
2022-12-17T17:44:59.291Z,151.23
2022-12-17T17:47:30.153Z,133.63
2022-12-17T17:49:58.200Z,140.30
2022-12-17T17:52:26.725Z,148.20
2022-12-17T17:54:54.993Z,150.47
2022-12-17T17:57:23.089Z,147.27
2022-12-17T17:59:51.474Z,146.00
2022-12-17T18:02:19.701Z,144.40
2022-12-17T18:04:49.211Z,136.20
2022-12-17T18:07:25.257Z,137.93
2022-12-17T18:09:54.537Z,147.97
2022-12-17T18:12:40.322Z,121.80
2022-12-17T18:15:14.915Z,139.63
2022-12-17T18:17:44.781Z,140.90
2022-12-17T18:20:14.852Z,143.07
2022-12-17T18:22:43.454Z,139.77
2022-12-17T18:25:11.538Z,145.57
2022-12-17T18:27:39.805Z,143.63
2022-12-17T18:30:08.685Z,148.17
2022-12-17T18:32:36.882Z,148.40
2022-12-17T18:35:05.220Z,146.67
2022-12-17T18:37:34.664Z,168.30
2022-12-17T18:40:02.787Z,145.67
2022-12-17T18:42:48.296Z,155.83
2022-12-17T18:45:16.686Z,139.57
2022-12-17T18:47:45.225Z,152.67
2022-12-17T18:50:13.720Z,135.20
2022-12-17T18:52:43.652Z,146.17
2022-12-17T18:55:12.079Z,143.90
2022-12-17T18:57:40.073Z,139.47
2022-12-17T19:00:09.387Z,137.80
2022-12-17T19:02:37.542Z,132.03
2022-12-17T19:05:06.049Z,149.47
2022-12-17T19:07:34.133Z,173.00
2022-12-17T19:10:03.575Z,164.13
2022-12-17T19:12:31.609Z,156.10
2022-12-17T19:14:59.701Z,139.47
2022-12-17T19:17:27.749Z,140.13
2022-12-17T19:19:55.870Z,133.93
2022-12-17T19:22:23.886Z,147.83
2022-12-17T19:24:51.993Z,126.33
2022-12-17T19:27:21.359Z,131.03
2022-12-17T19:29:50.119Z,143.57
2022-12-17T19:32:20.884Z,146.60
2022-12-17T19:34:48.896Z,124.20
2022-12-17T19:37:17.210Z,128.47
2022-12-17T19:39:45.225Z,135.73
2022-12-17T19:42:24.972Z,145.57
2022-12-17T19:44:55.456Z,119.03
2022-12-17T19:47:24.550Z,114.90
2022-12-17T19:49:52.692Z,119.50
2022-12-17T19:52:20.737Z,118.90
2022-12-17T19:54:49.724Z,124.13
2022-12-17T19:57:17.668Z,121.20
2022-12-17T19:59:45.706Z,132.07
2022-12-17T20:02:17.362Z,128.47
2022-12-17T20:04:45.558Z,117.73
2022-12-17T20:07:13.540Z,111.00
2022-12-17T20:09:44.149Z,110.47
2022-12-17T20:12:12.549Z,113.93
2022-12-17T20:14:40.585Z,117.03
2022-12-17T20:17:08.697Z,114.73
2022-12-17T20:19:38.682Z,125.73
2022-12-17T20:22:07.336Z,120.60
2022-12-17T20:24:37.234Z,119.13
2022-12-17T20:27:05.844Z,127.27
2022-12-17T20:29:33.916Z,124.40
2022-12-17T20:32:02.033Z,122.33
2022-12-17T20:34:30.301Z,126.07
2022-12-17T20:36:59.719Z,132.00
2022-12-17T20:39:28.367Z,136.13
2022-12-17T20:41:57.391Z,130.60
2022-12-17T20:44:26.016Z,130.50
2022-12-17T20:46:54.052Z,133.53
2022-12-17T20:49:22.153Z,136.00
2022-12-17T20:51:50.175Z,135.80
2022-12-17T20:54:19.795Z,128.10
2022-12-17T20:56:48.078Z,131.40
2022-12-17T20:59:17.791Z,126.87
2022-12-17T21:01:50.241Z,140.17
2022-12-17T21:04:21.074Z,139.93
2022-12-17T21:06:49.457Z,126.80
2022-12-17T21:09:20.889Z,141.90
2022-12-17T21:11:49.310Z,130.07
2022-12-17T21:14:19.427Z,121.40
2022-12-17T21:16:48.188Z,117.97
2022-12-17T21:19:18.682Z,118.17
2022-12-17T21:21:46.826Z,110.43
2022-12-17T21:24:14.887Z,131.67
2022-12-17T21:26:45.903Z,125.07
2022-12-17T21:29:14.506Z,139.83
2022-12-17T21:31:43.962Z,124.03
2022-12-17T21:34:14.972Z,138.73
2022-12-17T21:36:43.311Z,139.40
2022-12-17T21:39:13.578Z,124.83
2022-12-17T21:41:45.087Z,119.90
2022-12-17T21:44:17.111Z,126.83
2022-12-17T21:46:47.383Z,133.27
2022-12-17T21:49:19.045Z,127.87
2022-12-17T21:51:47.375Z,116.70
2022-12-17T21:54:19.785Z,118.43
2022-12-17T21:56:48.597Z,122.17
2022-12-17T21:59:18.243Z,121.03
2022-12-17T22:01:46.538Z,123.03
2022-12-17T22:04:14.684Z,119.13
2022-12-17T22:06:51.132Z,119.20
2022-12-17T22:09:48.832Z,116.27
2022-12-17T22:12:35.401Z,128.50
2022-12-17T22:15:05.660Z,118.00
2022-12-17T22:17:34.106Z,118.23
2022-12-17T22:20:02.129Z,124.63
2022-12-17T22:22:30.489Z,116.63
2022-12-17T22:25:03.099Z,112.43
2022-12-17T22:27:35.969Z,117.07
2022-12-17T22:30:20.164Z,108.73
2022-12-17T22:33:08.991Z,107.83
2022-12-17T22:37:26.731Z,97.87
2022-12-17T22:41:34.484Z,107.67
2022-12-17T22:44:34.437Z,102.57
2022-12-17T22:44:43.912Z,103.73
2022-12-17T22:47:17.720Z,97.07
2022-12-17T22:49:45.810Z,92.30
2022-12-17T22:52:13.839Z,100.27
2022-12-17T22:54:43.606Z,98.30
2022-12-17T22:57:35.907Z,97.67
2022-12-17T22:59:59.945Z,102.03
2022-12-17T23:02:29.388Z,90.70
2022-12-17T23:04:57.414Z,97.70
2022-12-17T23:07:31.402Z,94.70
2022-12-17T23:10:00.100Z,91.27
2022-12-17T23:12:45.308Z,92.07
2022-12-17T23:15:13.433Z,95.23
2022-12-17T23:17:43.045Z,90.90
2022-12-17T23:20:12.133Z,92.27
2022-12-17T23:22:40.150Z,98.43
2022-12-17T23:25:08.689Z,97.80
2022-12-17T23:27:36.747Z,92.40
2022-12-17T23:30:06.286Z,93.30
2022-12-17T23:32:35.312Z,98.77
2022-12-17T23:35:05.063Z,94.30
2022-12-17T23:37:39.378Z,97.70
2022-12-17T23:40:13.857Z,98.07
2022-12-17T23:42:42.058Z,94.03
2022-12-17T23:45:11.905Z,98.87
2022-12-17T23:47:42.128Z,101.80
2022-12-17T23:50:12.178Z,97.60
2022-12-17T23:52:40.680Z,97.87
2022-12-17T23:55:09.381Z,100.50
2022-12-17T23:57:37.436Z,100.40
